sensor_id;sensor_type;location;lat;lon;timestamp;pressure;altitude;pressure_sealevel;temperature;humidity
21838;BME280;11081;45.946;6.140;2023-05-07T00:01:44;95046.44;;;18.55;61.80
21838;BME280;11081;45.946;6.140;2023-05-07T00:04:12;95046.94;;;18.52;62.12
21838;BME280;11081;45.946;6.140;2023-05-07T00:06:41;95039.28;;;18.50;61.75
21838;BME280;11081;45.946;6.140;2023-05-07T00:09:08;95044.31;;;18.52;61.95
21838;BME280;11081;45.946;6.140;2023-05-07T00:11:37;95053.28;;;18.56;62.14
21838;BME280;11081;45.946;6.140;2023-05-07T00:14:06;95053.28;;;18.56;62.24
21838;BME280;11081;45.946;6.140;2023-05-07T00:16:34;95048.00;;;18.56;62.52
21838;BME280;11081;45.946;6.140;2023-05-07T00:19:02;95044.06;;;18.53;62.66
21838;BME280;11081;45.946;6.140;2023-05-07T00:21:30;95041.66;;;18.52;62.65
21838;BME280;11081;45.946;6.140;2023-05-07T00:23:58;95042.72;;;18.51;62.84
21838;BME280;11081;45.946;6.140;2023-05-07T00:26:26;95049.06;;;18.50;62.90
21838;BME280;11081;45.946;6.140;2023-05-07T00:28:54;95046.44;;;18.50;62.99
21838;BME280;11081;45.946;6.140;2023-05-07T00:31:24;95045.38;;;18.51;63.15
21838;BME280;11081;45.946;6.140;2023-05-07T00:33:52;95049.84;;;18.50;63.72
21838;BME280;11081;45.946;6.140;2023-05-07T00:36:20;95044.34;;;18.47;63.84
21838;BME280;11081;45.946;6.140;2023-05-07T00:38:48;95045.91;;;18.48;64.07
21838;BME280;11081;45.946;6.140;2023-05-07T00:41:16;95042.75;;;18.46;64.24
21838;BME280;11081;45.946;6.140;2023-05-07T00:43:44;95045.91;;;18.48;64.45
21838;BME280;11081;45.946;6.140;2023-05-07T00:46:12;95046.47;;;18.45;64.67
21838;BME280;11081;45.946;6.140;2023-05-07T00:48:42;95041.72;;;18.42;64.45
21838;BME280;11081;45.946;6.140;2023-05-07T00:51:10;95047.00;;;18.42;64.85
21838;BME280;11081;45.946;6.140;2023-05-07T00:53:39;95041.22;;;18.40;64.98
21838;BME280;11081;45.946;6.140;2023-05-07T00:56:07;95044.91;;;18.39;64.81
21838;BME280;11081;45.946;6.140;2023-05-07T00:58:35;95042.28;;;18.39;65.23
21838;BME280;11081;45.946;6.140;2023-05-07T01:01:03;95048.56;;;18.48;64.64
21838;BME280;11081;45.946;6.140;2023-05-07T01:03:31;95059.09;;;18.53;64.67
21838;BME280;11081;45.946;6.140;2023-05-07T01:06:02;95056.72;;;18.51;64.71
21838;BME280;11081;45.946;6.140;2023-05-07T01:08:31;95055.94;;;18.51;65.17
21838;BME280;11081;45.946;6.140;2023-05-07T01:11:02;95062.00;;;18.51;65.44
21838;BME280;11081;45.946;6.140;2023-05-07T01:13:30;95064.94;;;18.50;65.69
21838;BME280;11081;45.946;6.140;2023-05-07T01:15:58;95068.63;;;18.49;65.58
21838;BME280;11081;45.946;6.140;2023-05-07T01:18:27;95070.78;;;18.47;66.26
21838;BME280;11081;45.946;6.140;2023-05-07T01:20:58;95071.81;;;18.46;66.09
21838;BME280;11081;45.946;6.140;2023-05-07T01:23:29;95074.47;;;18.46;65.87
21838;BME280;11081;45.946;6.140;2023-05-07T01:25:57;95072.34;;;18.48;66.00
21838;BME280;11081;45.946;6.140;2023-05-07T01:28:27;95066.50;;;18.51;65.79
21838;BME280;11081;45.946;6.140;2023-05-07T01:31:00;95061.78;;;18.48;66.24
21838;BME280;11081;45.946;6.140;2023-05-07T01:33:33;95056.50;;;18.48;65.83
21838;BME280;11081;45.946;6.140;2023-05-07T01:36:03;95054.91;;;18.47;65.51
21838;BME280;11081;45.946;6.140;2023-05-07T01:38:35;95053.84;;;18.48;65.30
21838;BME280;11081;45.946;6.140;2023-05-07T01:41:04;95043.53;;;18.46;65.31
21838;BME280;11081;45.946;6.140;2023-05-07T01:43:33;95054.13;;;18.46;65.31
21838;BME280;11081;45.946;6.140;2023-05-07T01:46:01;95055.69;;;18.47;65.25
21838;BME280;11081;45.946;6.140;2023-05-07T01:48:30;95060.75;;;18.44;65.55
21838;BME280;11081;45.946;6.140;2023-05-07T01:50:59;95057.03;;;18.45;64.99
21838;BME280;11081;45.946;6.140;2023-05-07T01:53:28;95072.91;;;18.45;65.03
21838;BME280;11081;45.946;6.140;2023-05-07T01:55:57;95068.94;;;18.42;65.18
21838;BME280;11081;45.946;6.140;2023-05-07T01:58:25;95065.00;;;18.40;64.92
21838;BME280;11081;45.946;6.140;2023-05-07T02:00:53;95061.84;;;18.38;64.74
21838;BME280;11081;45.946;6.140;2023-05-07T02:03:21;95066.56;;;18.41;64.93
21838;BME280;11081;45.946;6.140;2023-05-07T02:05:58;95054.66;;;18.43;64.91
21838;BME280;11081;45.946;6.140;2023-05-07T02:08:36;95062.31;;;18.45;65.05
21838;BME280;11081;45.946;6.140;2023-05-07T02:11:05;95067.59;;;18.45;64.77
21838;BME280;11081;45.946;6.140;2023-05-07T02:13:36;95060.50;;;18.40;64.85
21838;BME280;11081;45.946;6.140;2023-05-07T02:16:04;95063.44;;;18.28;65.18
21838;BME280;11081;45.946;6.140;2023-05-07T02:18:33;95068.19;;;18.32;65.06
21838;BME280;11081;45.946;6.140;2023-05-07T02:21:02;95077.72;;;18.27;65.83
21838;BME280;11081;45.946;6.140;2023-05-07T02:23:30;95087.81;;;18.15;65.99
21838;BME280;11081;45.946;6.140;2023-05-07T02:25:58;95106.31;;;18.05;67.19
21838;BME280;11081;45.946;6.140;2023-05-07T02:28:28;95102.66;;;17.86;68.73
21838;BME280;11081;45.946;6.140;2023-05-07T02:31:03;95115.91;;;17.76;69.83
21838;BME280;11081;45.946;6.140;2023-05-07T02:33:32;95133.03;;;17.88;70.35
21838;BME280;11081;45.946;6.140;2023-05-07T02:36:07;95132.53;;;17.91;72.13
21838;BME280;11081;45.946;6.140;2023-05-07T02:38:40;95156.00;;;17.83;72.50
21838;BME280;11081;45.946;6.140;2023-05-07T02:41:08;95144.69;;;17.72;73.16
21838;BME280;11081;45.946;6.140;2023-05-07T02:43:37;95137.53;;;17.57;74.90
21838;BME280;11081;45.946;6.140;2023-05-07T02:46:08;95133.28;;;17.41;77.12
21838;BME280;11081;45.946;6.140;2023-05-07T02:48:40;95134.88;;;17.32;78.05
21838;BME280;11081;45.946;6.140;2023-05-07T02:51:08;95128.78;;;17.21;79.15
21838;BME280;11081;45.946;6.140;2023-05-07T02:53:38;95128.00;;;17.21;79.54
21838;BME280;11081;45.946;6.140;2023-05-07T02:56:06;95106.91;;;17.21;79.87
21838;BME280;11081;45.946;6.140;2023-05-07T02:58:34;95110.84;;;17.23;80.21
21838;BME280;11081;45.946;6.140;2023-05-07T03:01:05;95112.19;;;17.21;80.51
21838;BME280;11081;45.946;6.140;2023-05-07T03:03:52;95100.03;;;17.20;80.37
21838;BME280;11081;45.946;6.140;2023-05-07T03:06:20;95105.06;;;17.21;80.51
21838;BME280;11081;45.946;6.140;2023-05-07T03:08:48;95103.72;;;17.19;80.85
21838;BME280;11081;45.946;6.140;2023-05-07T03:11:16;95096.88;;;17.18;80.56
21838;BME280;11081;45.946;6.140;2023-05-07T03:13:44;95103.19;;;17.22;80.78
21838;BME280;11081;45.946;6.140;2023-05-07T03:16:14;95090.53;;;17.24;80.48
21838;BME280;11081;45.946;6.140;2023-05-07T03:18:42;95095.28;;;17.17;80.54
21838;BME280;11081;45.946;6.140;2023-05-07T03:21:11;95097.94;;;17.22;80.62
21838;BME280;11081;45.946;6.140;2023-05-07T03:23:39;95103.19;;;17.22;81.25
21838;BME280;11081;45.946;6.140;2023-05-07T03:26:07;95103.47;;;17.20;81.18
21838;BME280;11081;45.946;6.140;2023-05-07T03:28:36;95098.47;;;17.09;81.78
21838;BME280;11081;45.946;6.140;2023-05-07T03:31:08;95096.88;;;17.18;81.76
21838;BME280;11081;45.946;6.140;2023-05-07T03:33:49;95116.38;;;17.27;82.30
21838;BME280;11081;45.946;6.140;2023-05-07T03:36:17;95114.81;;;17.16;82.22
21838;BME280;11081;45.946;6.140;2023-05-07T03:38:45;95109.50;;;16.95;81.98
21838;BME280;11081;45.946;6.140;2023-05-07T03:41:17;95115.31;;;17.02;81.41
21838;BME280;11081;45.946;6.140;2023-05-07T03:43:46;95111.66;;;17.14;81.46
21838;BME280;11081;45.946;6.140;2023-05-07T03:46:14;95116.13;;;17.13;81.36
21838;BME280;11081;45.946;6.140;2023-05-07T03:48:44;95116.66;;;17.10;81.55
21838;BME280;11081;45.946;6.140;2023-05-07T03:51:13;95125.34;;;17.05;82.79
21838;BME280;11081;45.946;6.140;2023-05-07T03:53:41;95115.34;;;17.13;82.83
21838;BME280;11081;45.946;6.140;2023-05-07T03:56:09;95120.09;;;17.16;82.92
21838;BME280;11081;45.946;6.140;2023-05-07T03:58:39;95119.56;;;17.19;82.49
21838;BME280;11081;45.946;6.140;2023-05-07T04:01:09;95119.56;;;17.19;82.45
21838;BME280;11081;45.946;6.140;2023-05-07T04:03:38;95125.88;;;17.23;82.07
21838;BME280;11081;45.946;6.140;2023-05-07T04:06:07;95120.63;;;17.23;81.16
21838;BME280;11081;45.946;6.140;2023-05-07T04:08:36;95118.50;;;17.25;81.07
21838;BME280;11081;45.946;6.140;2023-05-07T04:11:05;95125.09;;;17.17;81.02
21838;BME280;11081;45.946;6.140;2023-05-07T04:13:35;95125.09;;;17.12;81.30
21838;BME280;11081;45.946;6.140;2023-05-07T04:16:06;95128.78;;;17.16;81.54
21838;BME280;11081;45.946;6.140;2023-05-07T04:18:35;95121.16;;;17.10;81.94
21838;BME280;11081;45.946;6.140;2023-05-07T04:21:04;95122.69;;;17.00;82.82
21838;BME280;11081;45.946;6.140;2023-05-07T04:23:36;95122.69;;;17.00;83.25
21838;BME280;11081;45.946;6.140;2023-05-07T04:26:09;95121.13;;;17.04;82.87
21838;BME280;11081;45.946;6.140;2023-05-07T04:28:42;95123.25;;;17.13;82.79
21838;BME280;11081;45.946;6.140;2023-05-07T04:31:11;95119.03;;;17.12;82.98
21838;BME280;11081;45.946;6.140;2023-05-07T04:33:40;95113.19;;;17.04;83.21
21838;BME280;11081;45.946;6.140;2023-05-07T04:36:11;95119.53;;;16.98;83.72
21838;BME280;11081;45.946;6.140;2023-05-07T04:38:49;95119.53;;;16.98;84.13
21838;BME280;11081;45.946;6.140;2023-05-07T04:41:19;95127.72;;;17.07;84.10
21838;BME280;11081;45.946;6.140;2023-05-07T04:43:47;95123.75;;;17.04;84.45
21838;BME280;11081;45.946;6.140;2023-05-07T04:46:17;95125.34;;;17.05;84.16
21838;BME280;11081;45.946;6.140;2023-05-07T04:48:46;95121.63;;;17.01;84.39
21838;BME280;11081;45.946;6.140;2023-05-07T04:51:15;95127.19;;;17.05;84.14
21838;BME280;11081;45.946;6.140;2023-05-07T04:53:43;95111.63;;;17.03;84.32
21838;BME280;11081;45.946;6.140;2023-05-07T04:56:12;95114.78;;;17.05;84.47
21838;BME280;11081;45.946;6.140;2023-05-07T04:58:42;95120.84;;;17.06;84.34
21838;BME280;11081;45.946;6.140;2023-05-07T05:01:11;95121.63;;;17.06;84.42
21838;BME280;11081;45.946;6.140;2023-05-07T05:03:40;95122.72;;;17.11;84.40
21838;BME280;11081;45.946;6.140;2023-05-07T05:06:08;95128.53;;;17.13;84.63
21838;BME280;11081;45.946;6.140;2023-05-07T05:08:36;95127.47;;;17.14;84.45
21838;BME280;11081;45.946;6.140;2023-05-07T05:11:04;95130.63;;;17.16;84.58
21838;BME280;11081;45.946;6.140;2023-05-07T05:13:35;95135.38;;;17.19;84.46
21838;BME280;11081;45.946;6.140;2023-05-07T05:16:10;95133.28;;;17.21;84.46
21838;BME280;11081;45.946;6.140;2023-05-07T05:18:39;95137.50;;;17.22;83.82
21838;BME280;11081;45.946;6.140;2023-05-07T05:21:09;95132.75;;;17.24;83.60
21838;BME280;11081;45.946;6.140;2023-05-07T05:23:38;95140.13;;;17.22;83.34
21838;BME280;11081;45.946;6.140;2023-05-07T05:26:07;95134.88;;;17.22;82.87
21838;BME280;11081;45.946;6.140;2023-05-07T05:28:36;95133.81;;;17.23;82.60
21838;BME280;11081;45.946;6.140;2023-05-07T05:31:05;95128.00;;;17.26;82.12
21838;BME280;11081;45.946;6.140;2023-05-07T05:33:35;95121.41;;;17.23;82.57
21838;BME280;11081;45.946;6.140;2023-05-07T05:36:05;95113.22;;;17.25;82.86
21838;BME280;11081;45.946;6.140;2023-05-07T05:38:34;95099.50;;;17.23;83.10
21838;BME280;11081;45.946;6.140;2023-05-07T05:41:03;95103.19;;;17.22;82.41
21838;BME280;11081;45.946;6.140;2023-05-07T05:43:31;95100.03;;;17.20;82.39
21838;BME280;11081;45.946;6.140;2023-05-07T05:46:00;95104.25;;;17.26;82.82
21838;BME280;11081;45.946;6.140;2023-05-07T05:48:29;95107.41;;;17.28;82.43
21838;BME280;11081;45.946;6.140;2023-05-07T05:51:00;95105.84;;;17.27;82.81
21838;BME280;11081;45.946;6.140;2023-05-07T05:53:28;95114.56;;;17.32;83.39
21838;BME280;11081;45.946;6.140;2023-05-07T05:55:56;95115.09;;;17.40;83.31
21838;BME280;11081;45.946;6.140;2023-05-07T05:58:24;95121.41;;;17.44;82.27
21838;BME280;11081;45.946;6.140;2023-05-07T06:00:57;95120.09;;;17.46;82.26
21838;BME280;11081;45.946;6.140;2023-05-07T06:03:29;95130.66;;;17.36;82.80
21838;BME280;11081;45.946;6.140;2023-05-07T06:06:00;95135.38;;;17.19;83.39
21838;BME280;11081;45.946;6.140;2023-05-07T06:08:29;95126.38;;;16.99;84.36
21838;BME280;11081;45.946;6.140;2023-05-07T06:10:58;95131.63;;;16.79;86.28
21838;BME280;11081;45.946;6.140;2023-05-07T06:13:28;95130.03;;;16.78;87.82
21838;BME280;11081;45.946;6.140;2023-05-07T06:15:56;95132.19;;;16.96;87.36
21838;BME280;11081;45.946;6.140;2023-05-07T06:18:24;95129.03;;;17.04;87.39
21838;BME280;11081;45.946;6.140;2023-05-07T06:20:54;95131.16;;;17.13;86.80
21838;BME280;11081;45.946;6.140;2023-05-07T06:23:26;95131.41;;;17.06;86.66
21838;BME280;11081;45.946;6.140;2023-05-07T06:25:54;95137.75;;;17.15;86.02
21838;BME280;11081;45.946;6.140;2023-05-07T06:28:27;95140.13;;;17.22;85.36
21838;BME280;11081;45.946;6.140;2023-05-07T06:31:11;95138.56;;;17.21;83.72
21838;BME280;11081;45.946;6.140;2023-05-07T06:33:40;95145.41;;;17.22;83.59
21838;BME280;11081;45.946;6.140;2023-05-07T06:36:09;95150.69;;;17.12;83.69
21838;BME280;11081;45.946;6.140;2023-05-07T06:38:38;95153.81;;;17.03;84.54
21838;BME280;11081;45.946;6.140;2023-05-07T06:41:06;95158.34;;;17.13;84.25
21838;BME280;11081;45.946;6.140;2023-05-07T06:43:37;95159.94;;;17.34;84.01
21838;BME280;11081;45.946;6.140;2023-05-07T06:46:29;95157.56;;;17.43;82.04
21838;BME280;11081;45.946;6.140;2023-05-07T06:48:58;95148.34;;;17.41;80.49
21838;BME280;11081;45.946;6.140;2023-05-07T06:51:28;95162.31;;;17.36;80.24
21838;BME280;11081;45.946;6.140;2023-05-07T06:54:00;95150.72;;;17.42;79.85
21838;BME280;11081;45.946;6.140;2023-05-07T06:56:32;95149.41;;;17.55;79.54
21838;BME280;11081;45.946;6.140;2023-05-07T06:59:02;95153.38;;;17.78;80.02
21838;BME280;11081;45.946;6.140;2023-05-07T07:01:35;95153.66;;;17.91;79.76
21838;BME280;11081;45.946;6.140;2023-05-07T07:04:04;95149.91;;;18.03;79.39
21838;BME280;11081;45.946;6.140;2023-05-07T07:06:34;95155.19;;;18.13;79.64
21838;BME280;11081;45.946;6.140;2023-05-07T07:09:07;95151.75;;;18.17;79.94
21838;BME280;11081;45.946;6.140;2023-05-07T07:11:35;95157.03;;;18.17;80.37
21838;BME280;11081;45.946;6.140;2023-05-07T07:14:04;95154.88;;;18.24;80.66
21838;BME280;11081;45.946;6.140;2023-05-07T07:16:38;95159.66;;;18.33;80.83
21838;BME280;11081;45.946;6.140;2023-05-07T07:19:06;95164.91;;;18.38;80.55
21838;BME280;11081;45.946;6.140;2023-05-07T07:21:36;95164.88;;;18.43;80.76
21838;BME280;11081;45.946;6.140;2023-05-07T07:24:05;95166.47;;;18.44;80.58
21838;BME280;11081;45.946;6.140;2023-05-07T07:26:32;95173.03;;;18.51;80.12
21838;BME280;11081;45.946;6.140;2023-05-07T07:29:00;95166.97;;;18.56;79.65
21838;BME280;11081;45.946;6.140;2023-05-07T07:31:28;95156.38;;;18.61;79.58
21838;BME280;11081;45.946;6.140;2023-05-07T07:33:57;95152.16;;;18.65;79.71
21838;BME280;11081;45.946;6.140;2023-05-07T07:36:26;95156.13;;;18.63;80.05
21838;BME280;11081;45.946;6.140;2023-05-07T07:39:13;95165.88;;;18.67;79.92
21838;BME280;11081;45.946;6.140;2023-05-07T07:41:41;95164.31;;;18.66;80.24
21838;BME280;11081;45.946;6.140;2023-05-07T07:44:10;95165.09;;;18.67;80.09
21838;BME280;11081;45.946;6.140;2023-05-07T07:46:45;95165.34;;;18.60;80.50
21838;BME280;11081;45.946;6.140;2023-05-07T07:49:14;95153.75;;;18.56;80.88
21838;BME280;11081;45.946;6.140;2023-05-07T07:51:43;95150.03;;;18.57;80.83
21838;BME280;11081;45.946;6.140;2023-05-07T07:54:14;95154.28;;;18.63;81.24
21838;BME280;11081;45.946;6.140;2023-05-07T07:56:42;95152.16;;;18.65;80.23
21838;BME280;11081;45.946;6.140;2023-05-07T07:59:12;95149.72;;;18.74;79.45
21838;BME280;11081;45.946;6.140;2023-05-07T08:01:44;95155.22;;;18.87;79.61
21838;BME280;11081;45.946;6.140;2023-05-07T08:04:14;95158.88;;;18.97;79.38
21838;BME280;11081;45.946;6.140;2023-05-07T08:06:43;95160.88;;;19.15;78.97
21838;BME280;11081;45.946;6.140;2023-05-07T08:09:11;95159.16;;;19.34;76.87
21838;BME280;11081;45.946;6.140;2023-05-07T08:11:42;95160.03;;;19.25;75.52
21838;BME280;11081;45.946;6.140;2023-05-07T08:14:11;95160.56;;;19.27;74.46
21838;BME280;11081;45.946;6.140;2023-05-07T08:16:39;95153.47;;;19.17;71.38
21838;BME280;11081;45.946;6.140;2023-05-07T08:19:07;95159.28;;;19.14;69.34
21838;BME280;11081;45.946;6.140;2023-05-07T08:21:38;95165.66;;;19.18;69.40
21838;BME280;11081;45.946;6.140;2023-05-07T08:24:09;95164.78;;;19.28;68.98
21838;BME280;11081;45.946;6.140;2023-05-07T08:26:37;95162.31;;;19.36;69.80
21838;BME280;11081;45.946;6.140;2023-05-07T08:29:08;95170.19;;;19.52;70.62
21838;BME280;11081;45.946;6.140;2023-05-07T08:31:36;95166.97;;;19.60;70.42
21838;BME280;11081;45.946;6.140;2023-05-07T08:34:05;95165.88;;;19.66;69.33
21838;BME280;11081;45.946;6.140;2023-05-07T08:36:38;95169.06;;;19.63;69.76
21838;BME280;11081;45.946;6.140;2023-05-07T08:39:10;95172.75;;;19.67;69.17
21838;BME280;11081;45.946;6.140;2023-05-07T08:41:38;95171.16;;;19.66;68.78
21838;BME280;11081;45.946;6.140;2023-05-07T08:44:11;95182.88;;;19.60;69.51
21838;BME280;11081;45.946;6.140;2023-05-07T08:46:41;95179.19;;;19.56;69.29
21838;BME280;11081;45.946;6.140;2023-05-07T08:49:10;95182.34;;;19.53;69.50
21838;BME280;11081;45.946;6.140;2023-05-07T08:51:38;95178.44;;;19.45;69.90
21838;BME280;11081;45.946;6.140;2023-05-07T08:54:07;95179.19;;;19.50;67.96
21838;BME280;11081;45.946;6.140;2023-05-07T08:56:36;95179.97;;;19.56;67.16
21838;BME280;11081;45.946;6.140;2023-05-07T08:59:07;95185.41;;;19.31;66.08
21838;BME280;11081;45.946;6.140;2023-05-07T09:01:36;95184.69;;;19.15;66.23
21838;BME280;11081;45.946;6.140;2023-05-07T09:04:05;95182.03;;;19.15;66.25
21838;BME280;11081;45.946;6.140;2023-05-07T09:06:34;95187.66;;;19.08;66.02
21838;BME280;11081;45.946;6.140;2023-05-07T09:09:04;95186.28;;;19.21;66.28
21838;BME280;11081;45.946;6.140;2023-05-07T09:11:33;95186.81;;;19.18;65.69
21838;BME280;11081;45.946;6.140;2023-05-07T09:14:01;95194.66;;;19.33;64.85
21838;BME280;11081;45.946;6.140;2023-05-07T09:16:37;95186.94;;;19.42;64.56
21838;BME280;11081;45.946;6.140;2023-05-07T09:19:05;95185.53;;;19.55;63.25
21838;BME280;11081;45.946;6.140;2023-05-07T09:21:35;95194.50;;;19.64;63.43
21838;BME280;11081;45.946;6.140;2023-05-07T09:24:06;95196.53;;;19.72;63.50
21838;BME280;11081;45.946;6.140;2023-05-07T09:26:39;95194.56;;;19.88;63.74
21838;BME280;11081;45.946;6.140;2023-05-07T09:29:10;95192.25;;;19.76;63.95
21838;BME280;11081;45.946;6.140;2023-05-07T09:31:40;95192.25;;;19.76;64.36
21838;BME280;11081;45.946;6.140;2023-05-07T09:34:12;95185.88;;;19.82;64.97
21838;BME280;11081;45.946;6.140;2023-05-07T09:36:43;95190.22;;;19.68;64.60
21838;BME280;11081;45.946;6.140;2023-05-07T09:39:11;95190.22;;;19.68;64.03
21838;BME280;11081;45.946;6.140;2023-05-07T09:41:46;95194.00;;;19.57;63.96
21838;BME280;11081;45.946;6.140;2023-05-07T09:44:22;95191.19;;;19.38;64.96
21838;BME280;11081;45.946;6.140;2023-05-07T09:46:54;95188.78;;;19.41;65.72
21838;BME280;11081;45.946;6.140;2023-05-07T09:49:30;95186.59;;;19.54;65.04
21838;BME280;11081;45.946;6.140;2023-05-07T09:52:05;95184.47;;;19.61;64.22
21838;BME280;11081;45.946;6.140;2023-05-07T09:54:38;95186.50;;;19.69;64.69
21838;BME280;11081;45.946;6.140;2023-05-07T09:57:07;95190.25;;;19.63;64.25
21838;BME280;11081;45.946;6.140;2023-05-07T09:59:38;95187.09;;;19.61;65.04
21838;BME280;11081;45.946;6.140;2023-05-07T10:02:11;95189.84;;;19.40;65.68
21838;BME280;11081;45.946;6.140;2023-05-07T10:04:46;95185.16;;;19.27;66.67
21838;BME280;11081;45.946;6.140;2023-05-07T10:07:18;95194.66;;;19.33;67.09
21838;BME280;11081;45.946;6.140;2023-05-07T10:09:48;95188.88;;;19.26;65.58
21838;BME280;11081;45.946;6.140;2023-05-07T10:12:27;95200.22;;;19.37;66.00
21838;BME280;11081;45.946;6.140;2023-05-07T10:14:56;95192.50;;;19.35;66.16
21838;BME280;11081;45.946;6.140;2023-05-07T10:17:25;95203.84;;;19.46;65.95
21838;BME280;11081;45.946;6.140;2023-05-07T10:19:54;95203.06;;;19.45;65.61
21838;BME280;11081;45.946;6.140;2023-05-07T10:22:23;95196.69;;;19.46;65.73
21838;BME280;11081;45.946;6.140;2023-05-07T10:24:55;95196.13;;;19.55;64.97
21838;BME280;11081;45.946;6.140;2023-05-07T10:27:25;95199.91;;;19.43;65.87
21838;BME280;11081;45.946;6.140;2023-05-07T10:30:03;95198.31;;;19.42;66.15
21838;BME280;11081;45.946;6.140;2023-05-07T10:32:40;95203.53;;;19.53;66.57
21838;BME280;11081;45.946;6.140;2023-05-07T10:35:17;95201.38;;;19.65;66.76
21838;BME280;11081;45.946;6.140;2023-05-07T10:37:48;95205.56;;;19.71;66.17
21838;BME280;11081;45.946;6.140;2023-05-07T10:40:19;95192.75;;;19.83;66.60
21838;BME280;11081;45.946;6.140;2023-05-07T10:42:54;95203.59;;;19.87;66.98
21838;BME280;11081;45.946;6.140;2023-05-07T10:45:24;95201.78;;;19.82;65.16
21838;BME280;11081;45.946;6.140;2023-05-07T10:48:12;95208.31;;;19.56;61.87
21838;BME280;11081;45.946;6.140;2023-05-07T10:51:19;95205.75;;;19.40;62.84
21838;BME280;11081;45.946;6.140;2023-05-07T10:54:19;95201.59;;;19.24;61.78
21838;BME280;11081;45.946;6.140;2023-05-07T10:56:55;95196.84;;;19.21;63.08
21838;BME280;11081;45.946;6.140;2023-05-07T10:59:34;95199.53;;;19.16;62.55
21838;BME280;11081;45.946;6.140;2023-05-07T11:06:11;95205.03;;;18.55;65.54
21838;BME280;11081;45.946;6.140;2023-05-07T11:09:00;95210.34;;;18.45;65.84
21838;BME280;11081;45.946;6.140;2023-05-07T11:11:45;95213.50;;;18.47;67.24
21838;BME280;11081;45.946;6.140;2023-05-07T11:14:44;95215.09;;;18.48;67.20
21838;BME280;11081;45.946;6.140;2023-05-07T11:17:27;95213.53;;;18.32;67.33
21838;BME280;11081;45.946;6.140;2023-05-07T11:20:05;95225.19;;;18.20;68.17
21838;BME280;11081;45.946;6.140;2023-05-07T11:22:55;95224.66;;;18.03;68.75
21838;BME280;11081;45.946;6.140;2023-05-07T11:25:38;95233.13;;;17.95;70.06
21838;BME280;11081;45.946;6.140;2023-05-07T11:28:18;95233.13;;;17.85;70.81
21838;BME280;11081;45.946;6.140;2023-05-07T11:30:54;95236.25;;;17.66;72.29
21838;BME280;11081;45.946;6.140;2023-05-07T11:33:24;95232.28;;;17.64;73.66
21838;BME280;11081;45.946;6.140;2023-05-07T11:35:55;95238.88;;;17.66;75.04
21838;BME280;11081;45.946;6.140;2023-05-07T11:38:35;95238.66;;;17.68;75.50
21838;BME280;11081;45.946;6.140;2023-05-07T11:41:03;95250.50;;;17.65;75.88
21838;BME280;11081;45.946;6.140;2023-05-07T11:43:32;95244.16;;;17.51;76.06
21838;BME280;11081;45.946;6.140;2023-05-07T11:46:06;95248.34;;;17.47;77.37
21838;BME280;11081;45.946;6.140;2023-05-07T11:48:35;95246.81;;;17.56;77.44
21838;BME280;11081;45.946;6.140;2023-05-07T11:51:04;95257.09;;;17.53;79.14
21838;BME280;11081;45.946;6.140;2023-05-07T11:53:38;95253.13;;;17.60;78.60
21838;BME280;11081;45.946;6.140;2023-05-07T11:56:07;95263.75;;;17.71;78.27
21838;BME280;11081;45.946;6.140;2023-05-07T11:58:36;95262.13;;;17.64;79.80
21838;BME280;11081;45.946;6.140;2023-05-07T12:01:04;95275.31;;;17.64;79.96
21838;BME280;11081;45.946;6.140;2023-05-07T12:03:35;95279.06;;;17.74;81.14
21838;BME280;11081;45.946;6.140;2023-05-07T12:06:06;95284.34;;;17.74;82.47
21838;BME280;11081;45.946;6.140;2023-05-07T12:08:37;95282.78;;;17.73;83.87
21838;BME280;11081;45.946;6.140;2023-05-07T12:11:09;95274.31;;;17.71;84.53
21838;BME280;11081;45.946;6.140;2023-05-07T12:13:41;95285.38;;;17.67;84.49
21838;BME280;11081;45.946;6.140;2023-05-07T12:16:09;95284.81;;;17.60;85.65
21838;BME280;11081;45.946;6.140;2023-05-07T12:18:37;95287.44;;;17.60;86.15
21838;BME280;11081;45.946;6.140;2023-05-07T12:21:06;95294.31;;;17.51;86.92
21838;BME280;11081;45.946;6.140;2023-05-07T12:23:37;95293.78;;;17.49;87.04
21838;BME280;11081;45.946;6.140;2023-05-07T12:26:06;95292.72;;;17.55;87.24
21838;BME280;11081;45.946;6.140;2023-05-07T12:28:38;95295.91;;;17.57;87.63
21838;BME280;11081;45.946;6.140;2023-05-07T12:31:07;95290.09;;;17.60;88.26
21838;BME280;11081;45.946;6.140;2023-05-07T12:33:35;95304.38;;;17.70;87.81
21838;BME280;11081;45.946;6.140;2023-05-07T12:36:06;95300.72;;;17.76;88.11
21838;BME280;11081;45.946;6.140;2023-05-07T12:38:36;95300.47;;;17.82;87.59
21838;BME280;11081;45.946;6.140;2023-05-07T12:41:06;95309.16;;;17.83;88.10
21838;BME280;11081;45.946;6.140;2023-05-07T12:43:34;95302.31;;;17.72;87.58
21838;BME280;11081;45.946;6.140;2023-05-07T12:46:04;95308.56;;;17.65;88.03
21838;BME280;11081;45.946;6.140;2023-05-07T12:48:32;95301.44;;;17.61;87.45
21838;BME280;11081;45.946;6.140;2023-05-07T12:51:01;95310.16;;;17.56;87.13
21838;BME280;11081;45.946;6.140;2023-05-07T12:53:29;95311.22;;;17.60;86.82
21838;BME280;11081;45.946;6.140;2023-05-07T12:55:58;95311.22;;;17.60;86.55
21838;BME280;11081;45.946;6.140;2023-05-07T12:58:30;95316.56;;;17.71;85.77
21838;BME280;11081;45.946;6.140;2023-05-07T13:00:59;95315.25;;;17.73;85.34
21838;BME280;11081;45.946;6.140;2023-05-07T13:03:30;95311.81;;;17.83;85.25
21838;BME280;11081;45.946;6.140;2023-05-07T13:05:59;95310.22;;;17.87;85.52
21838;BME280;11081;45.946;6.140;2023-05-07T13:08:29;95313.41;;;17.79;86.08
21838;BME280;11081;45.946;6.140;2023-05-07T13:10:59;95313.66;;;17.72;85.93
21838;BME280;11081;45.946;6.140;2023-05-07T13:13:32;95310.75;;;17.84;85.53
21838;BME280;11081;45.946;6.140;2023-05-07T13:16:00;95315.50;;;17.87;85.81
21838;BME280;11081;45.946;6.140;2023-05-07T13:18:29;95313.97;;;17.96;86.99
21838;BME280;11081;45.946;6.140;2023-05-07T13:20:58;95313.94;;;18.06;86.26
21838;BME280;11081;45.946;6.140;2023-05-07T13:23:27;95315.00;;;18.00;85.74